createdAt,value
2022-11-12T00:01:30.752Z,22.00
2022-11-12T00:06:52.058Z,13.63
2022-11-12T00:12:14.651Z,13.37
2022-11-12T00:17:35.923Z,14.00
2022-11-12T00:22:57.017Z,14.17
2022-11-12T00:28:19.686Z,12.83
2022-11-12T00:33:42.480Z,14.50
2022-11-12T00:39:05.174Z,11.00
2022-11-12T00:44:29.534Z,10.27
2022-11-12T00:49:51.175Z,12.57
2022-11-12T00:55:12.770Z,8.33
2022-11-12T01:00:35.394Z,9.87
2022-11-12T01:06:02.277Z,11.00
2022-11-12T01:11:25.438Z,8.80
2022-11-12T01:16:48.154Z,11.57
2022-11-12T01:22:09.735Z,10.07
2022-11-12T01:27:31.366Z,9.23
2022-11-12T01:32:54.345Z,8.10
2022-11-12T01:38:15.562Z,9.80
2022-11-12T01:43:37.130Z,7.17
2022-11-12T01:49:03.734Z,6.60
2022-11-12T01:54:26.860Z,5.27
2022-11-12T01:59:51.201Z,6.27
2022-11-12T02:05:16.102Z,7.73
2022-11-12T02:10:37.617Z,6.10
2022-11-12T02:15:59.535Z,8.23
2022-11-12T02:21:22.833Z,7.43
2022-11-12T02:26:48.302Z,6.60
2022-11-12T02:32:09.714Z,10.03
2022-11-12T02:37:32.708Z,9.40
2022-11-12T02:42:54.241Z,6.50
2022-11-12T02:48:19.158Z,7.10
2022-11-12T02:53:42.274Z,7.10
2022-11-12T02:59:03.603Z,8.47
2022-11-12T03:04:25.115Z,6.87
2022-11-12T03:09:47.747Z,8.57
2022-11-12T03:15:09.686Z,6.93
2022-11-12T03:20:31.346Z,6.30
2022-11-12T03:25:54.281Z,5.83
2022-11-12T03:31:15.778Z,8.83
2022-11-12T03:36:37.179Z,9.80
2022-11-12T03:41:59.676Z,5.63
2022-11-12T03:47:20.868Z,5.97
2022-11-12T03:52:45.764Z,7.40
2022-11-12T03:58:08.724Z,6.30
2022-11-12T04:03:30.448Z,9.07
2022-11-12T04:08:52.053Z,6.73
2022-11-12T04:14:14.557Z,7.83
2022-11-12T04:19:53.418Z,7.53
2022-11-12T04:25:32.583Z,5.57
2022-11-12T04:30:55.330Z,8.50
2022-11-12T04:36:16.779Z,6.10
2022-11-12T04:42:03.599Z,6.07
2022-11-12T04:47:26.828Z,4.83
2022-11-12T04:52:48.051Z,5.20
2022-11-12T04:58:09.238Z,3.23
2022-11-12T05:03:31.792Z,7.13
2022-11-12T05:08:53.081Z,4.97
2022-11-12T05:14:14.369Z,4.37
2022-11-12T05:19:37.009Z,4.47
2022-11-12T05:24:58.418Z,6.90
2022-11-12T05:30:19.985Z,5.77
2022-11-12T05:35:42.923Z,7.10
2022-11-12T05:41:04.646Z,7.63
2022-11-12T05:46:25.862Z,7.77
2022-11-12T05:51:48.567Z,6.97
2022-11-12T05:57:09.770Z,8.00
2022-11-12T06:02:31.033Z,7.50
2022-11-12T06:07:54.253Z,7.83
2022-11-12T06:13:15.513Z,8.50
2022-11-12T06:18:37.614Z,4.00
2022-11-12T06:24:01.497Z,6.53
2022-11-12T06:29:22.682Z,4.37
2022-11-12T06:34:44.203Z,6.23
2022-11-12T06:40:08.538Z,4.03
2022-11-12T06:45:30.072Z,7.30
2022-11-12T06:50:51.428Z,7.67
2022-11-12T06:56:14.844Z,6.43
2022-11-12T07:01:36.290Z,6.90
2022-11-12T07:06:58.378Z,6.27
2022-11-12T07:12:21.697Z,7.60
2022-11-12T07:17:46.443Z,7.17
2022-11-12T07:23:08.468Z,8.00
2022-11-12T07:28:32.102Z,8.50
2022-11-12T07:33:53.986Z,8.70
2022-11-12T07:39:15.348Z,15.83
2022-11-12T07:44:37.919Z,10.20
2022-11-12T07:50:00.413Z,17.10
2022-11-12T07:55:21.883Z,14.33
2022-11-12T08:00:44.514Z,11.70
2022-11-12T08:06:06.586Z,10.67
2022-11-12T08:11:28.153Z,7.60
2022-11-12T08:16:51.087Z,7.33
2022-11-12T08:22:12.473Z,8.50
2022-11-12T08:27:34.083Z,12.50
2022-11-12T08:33:01.947Z,7.20
2022-11-12T08:38:23.860Z,7.17
2022-11-12T08:43:45.510Z,8.00
2022-11-12T08:49:08.532Z,8.80
2022-11-12T08:54:30.475Z,12.27
2022-11-12T08:59:52.011Z,13.03
2022-11-12T09:05:14.788Z,20.57
2022-11-12T09:10:36.862Z,16.93
2022-11-12T09:16:02.491Z,7.93
2022-11-12T09:21:25.683Z,8.40
2022-11-12T09:26:48.164Z,9.93
2022-11-12T09:32:09.679Z,9.83
2022-11-12T09:37:32.574Z,6.97
2022-11-12T09:42:54.466Z,10.60
2022-11-12T09:48:21.527Z,10.63
2022-11-12T09:53:51.755Z,20.70
2022-11-12T09:59:14.434Z,7.13
2022-11-12T10:04:47.688Z,5.00
2022-11-12T10:10:16.237Z,5.77
2022-11-12T10:15:58.049Z,5.43
2022-11-12T10:21:29.377Z,4.90
2022-11-12T10:26:54.422Z,5.20
2022-11-12T10:32:17.564Z,5.70
2022-11-12T10:37:46.870Z,7.40
2022-11-12T10:43:23.022Z,7.33
2022-11-12T10:48:55.513Z,6.90
2022-11-12T10:54:31.220Z,8.50
2022-11-12T11:00:09.722Z,5.73
2022-11-12T11:05:35.450Z,8.23
2022-11-12T11:11:17.798Z,5.93
2022-11-12T11:16:51.308Z,7.13
2022-11-12T11:22:39.222Z,11.63
2022-11-12T11:28:13.165Z,5.03
2022-11-12T11:33:46.522Z,5.97
2022-11-12T11:39:19.045Z,4.60
2022-11-12T11:44:48.421Z,4.43
2022-11-12T11:50:29.574Z,3.70
2022-11-12T11:55:57.371Z,4.20
2022-11-12T12:01:29.873Z,3.47
2022-11-12T12:07:07.239Z,5.00
2022-11-12T12:12:53.567Z,3.77
2022-11-12T12:18:27.571Z,4.73
2022-11-12T12:23:55.020Z,9.70
2022-11-12T12:29:20.452Z,6.10
2022-11-12T12:34:47.761Z,6.17
2022-11-12T12:40:19.783Z,6.50
2022-11-12T12:45:43.743Z,4.77
2022-11-12T12:51:05.672Z,4.90
2022-11-12T12:56:50.400Z,13.77
2022-11-12T13:02:22.202Z,33.80
2022-11-12T13:07:45.853Z,10.27
2022-11-12T13:13:32.449Z,6.50
2022-11-12T13:19:02.772Z,7.30
2022-11-12T13:25:04.291Z,4.20
2022-11-12T13:30:55.242Z,3.53
2022-11-12T13:36:36.141Z,6.17
2022-11-12T13:42:16.702Z,5.10
2022-11-12T13:47:49.673Z,7.47
2022-11-12T13:53:14.810Z,4.00
2022-11-12T13:58:37.215Z,4.17
2022-11-12T14:03:59.968Z,4.80
2022-11-12T14:09:46.236Z,8.27
2022-11-12T14:15:26.316Z,5.93
2022-11-12T14:20:50.482Z,10.70
2022-11-12T14:26:13.631Z,6.57
2022-11-12T14:31:34.990Z,7.17
2022-11-12T14:36:57.565Z,14.50
2022-11-12T14:42:19.196Z,8.20
2022-11-12T14:47:40.450Z,10.80
2022-11-12T14:53:07.216Z,10.87
2022-11-12T14:58:28.989Z,10.97
2022-11-12T15:03:50.539Z,17.03
2022-11-12T15:09:18.779Z,19.23
2022-11-12T15:14:40.579Z,19.60
2022-11-12T15:20:04.147Z,21.27
2022-11-12T15:25:29.911Z,22.93
2022-11-12T15:31:02.390Z,31.53
2022-11-12T15:36:25.588Z,22.20
2022-11-12T15:41:48.959Z,7.93
2022-11-12T15:47:15.265Z,11.40
2022-11-12T15:52:36.518Z,8.77
2022-11-12T15:57:59.537Z,22.87
2022-11-12T16:03:22.642Z,11.47
2022-11-12T16:08:44.196Z,6.73
2022-11-12T16:14:12.170Z,7.37
2022-11-12T16:19:34.573Z,9.03
2022-11-12T16:24:56.124Z,9.33
2022-11-12T16:30:21.338Z,10.63
2022-11-12T16:35:42.799Z,10.83
2022-11-12T16:41:04.406Z,14.00
2022-11-12T16:46:30.987Z,10.50
2022-11-12T16:51:52.475Z,8.27
2022-11-12T16:57:13.901Z,8.73
2022-11-12T17:02:43.645Z,10.83
2022-11-12T17:08:06.948Z,18.27
2022-11-12T17:13:28.522Z,24.53
2022-11-12T17:18:54.335Z,19.47
2022-11-12T17:24:16.015Z,23.43
2022-11-12T17:29:37.182Z,32.83
2022-11-12T17:35:00.064Z,32.93
2022-11-12T17:40:21.622Z,28.53
2022-11-12T17:45:50.365Z,34.97
2022-11-12T17:51:15.714Z,26.47
2022-11-12T17:56:37.349Z,25.87
2022-11-12T18:01:58.971Z,34.90
2022-11-12T18:07:21.629Z,28.83
2022-11-12T18:12:43.499Z,37.37
2022-11-12T18:18:05.456Z,33.23
2022-11-12T18:23:28.560Z,37.17
2022-11-12T18:28:52.324Z,44.17
2022-11-12T18:34:15.383Z,48.33
2022-11-12T18:39:38.205Z,38.17
2022-11-12T18:44:59.711Z,36.83
2022-11-12T18:50:21.277Z,41.63
2022-11-12T18:55:44.187Z,33.53
2022-11-12T19:01:06.919Z,35.33
2022-11-12T19:06:28.277Z,52.87
2022-11-12T19:11:50.962Z,48.73
2022-11-12T19:17:12.288Z,48.30
2022-11-12T19:22:33.830Z,41.90
2022-11-12T19:27:56.622Z,45.20
2022-11-12T19:33:18.000Z,39.23
2022-11-12T19:38:39.365Z,58.70
2022-11-12T19:44:01.766Z,56.37
2022-11-12T19:49:23.039Z,61.10
2022-11-12T19:54:44.403Z,48.63
2022-11-12T20:00:08.775Z,42.20
2022-11-12T20:05:31.135Z,38.87
2022-11-12T20:10:52.441Z,41.70
2022-11-12T20:16:22.239Z,34.07
2022-11-12T20:21:46.148Z,39.60
2022-11-12T20:27:07.980Z,35.50
2022-11-12T20:32:30.594Z,32.40
2022-11-12T20:37:53.203Z,32.70
2022-11-12T20:43:16.201Z,35.67
2022-11-12T20:48:43.100Z,35.43
2022-11-12T20:54:04.743Z,33.50
2022-11-12T20:59:27.589Z,31.43
2022-11-12T21:04:53.946Z,30.00
2022-11-12T21:10:15.431Z,33.50
2022-11-12T21:15:36.943Z,28.60
2022-11-12T21:21:03.909Z,26.87
2022-11-12T21:26:25.546Z,31.37
2022-11-12T21:31:46.826Z,24.17
2022-11-12T21:37:09.454Z,34.40
2022-11-12T21:42:30.683Z,33.57
2022-11-12T21:47:52.279Z,32.73
2022-11-12T21:53:15.727Z,28.70
2022-11-12T21:58:37.922Z,27.70
2022-11-12T22:04:00.032Z,29.70
2022-11-12T22:09:22.818Z,30.33
2022-11-12T22:14:44.133Z,29.50
2022-11-12T22:20:06.325Z,23.37
2022-11-12T22:25:28.894Z,25.27
2022-11-12T22:30:50.618Z,26.10
2022-11-12T22:36:13.875Z,22.30
2022-11-12T22:41:37.414Z,23.80
2022-11-12T22:46:59.123Z,26.33
2022-11-12T22:52:20.334Z,24.93
2022-11-12T22:57:42.930Z,28.20
2022-11-12T23:03:04.192Z,25.97
2022-11-12T23:08:25.754Z,23.00
2022-11-12T23:13:49.602Z,32.17
2022-11-12T23:19:11.080Z,23.33
2022-11-12T23:24:32.238Z,25.00
2022-11-12T23:29:54.799Z,25.70
2022-11-12T23:35:16.187Z,24.87
2022-11-12T23:40:37.893Z,22.80
2022-11-12T23:46:00.870Z,22.70
2022-11-12T23:51:23.375Z,28.80
2022-11-12T23:56:44.989Z,22.43
